Tinian, Northern Mariana Islands
Current Conditions -  °F | °C
As of 5:56 AM on Sunday 21 Dec 2014 (Local Time) from PGWT Reporting Station
Scattered Clouds Scattered Clouds  
Wind Chill: 81°   Ceiling: Unl
Heat Index: 86°   Visibility: 7mi
Dew Point: 75°   Wind: 16mph
Humidity: 84%   Direction: 80°E
Pressure: 29.9"   Gusts: 23mph
Location:  14.96°N, 145.63°E
Report Text: PGWT 201956Z 08014G20KT 7SM SCT015 SCT080 27/24 A2990 RMK FIRST
Loading
Personal Weather Stations






























Interactive Weather Map New forecast layout! Learn more

10-Day Weather Forecast

Advertisements
Track Severe Weather on mobile